createdAt,value
2017-10-04T00:02:08.730Z,90.40
2017-10-04T00:04:36.478Z,90.50
2017-10-04T00:07:04.123Z,90.50
2017-10-04T00:09:31.779Z,90.80
2017-10-04T00:11:59.512Z,90.50
2017-10-04T00:14:27.162Z,90.50
2017-10-04T00:16:54.806Z,90.50
2017-10-04T00:19:22.587Z,90.60
2017-10-04T00:21:50.710Z,90.70
2017-10-04T00:24:18.363Z,90.70
2017-10-04T00:26:46.055Z,90.70
2017-10-04T00:29:13.704Z,90.80
2017-10-04T00:31:41.392Z,90.80
2017-10-04T00:34:09.187Z,90.90
2017-10-04T00:36:36.885Z,90.70
2017-10-04T00:39:04.566Z,90.60
2017-10-04T00:41:32.391Z,90.70
2017-10-04T00:44:00.132Z,90.70
2017-10-04T00:46:27.807Z,90.50
2017-10-04T00:48:55.934Z,90.50
2017-10-04T00:51:23.678Z,90.50
2017-10-04T00:53:51.430Z,90.50
2017-10-04T00:56:19.276Z,90.50
2017-10-04T00:58:46.990Z,90.60
2017-10-04T01:01:14.770Z,90.40
2017-10-04T01:03:42.607Z,90.50
2017-10-04T01:06:10.283Z,90.50
2017-10-04T01:08:38.343Z,90.30
2017-10-04T01:11:06.474Z,90.00
2017-10-04T01:13:34.156Z,90.00
2017-10-04T01:16:01.836Z,90.00
2017-10-04T01:18:29.706Z,90.00
2017-10-04T01:20:57.463Z,90.30
2017-10-04T01:23:25.117Z,90.50
2017-10-04T01:25:52.839Z,90.70
2017-10-04T01:28:20.479Z,90.80
2017-10-04T01:30:48.148Z,90.90
2017-10-04T01:33:15.895Z,90.80
2017-10-04T01:35:43.546Z,90.80
2017-10-04T01:38:11.203Z,90.90
2017-10-04T01:40:39.383Z,91.00
2017-10-04T01:43:07.034Z,91.00
2017-10-04T01:45:34.740Z,90.80
2017-10-04T01:48:02.467Z,91.20
2017-10-04T01:50:30.114Z,90.80
2017-10-04T01:52:57.763Z,90.90
2017-10-04T01:55:25.623Z,91.10
2017-10-04T01:57:53.269Z,91.00
2017-10-04T02:00:21.014Z,91.00
2017-10-04T02:02:48.859Z,91.10
2017-10-04T02:05:16.503Z,90.80
2017-10-04T02:07:44.262Z,91.00
2017-10-04T02:10:11.961Z,90.80
2017-10-04T02:12:39.635Z,90.90
2017-10-04T02:15:07.304Z,91.00
2017-10-04T02:17:34.995Z,91.00
2017-10-04T02:20:02.686Z,91.10
2017-10-04T02:22:30.335Z,90.80
2017-10-04T02:24:58.430Z,90.60
2017-10-04T02:27:26.083Z,90.60
2017-10-04T02:29:53.723Z,90.70
2017-10-04T02:32:21.505Z,90.80
2017-10-04T02:34:49.143Z,91.20
2017-10-04T02:37:16.779Z,91.30
2017-10-04T02:39:44.549Z,91.20
2017-10-04T02:42:12.607Z,90.70
2017-10-04T02:44:40.349Z,90.70
2017-10-04T02:47:08.098Z,90.80
2017-10-04T02:49:35.844Z,90.80
2017-10-04T02:52:03.492Z,90.70
2017-10-04T02:54:31.271Z,91.50
2017-10-04T02:56:59.312Z,91.70
2017-10-04T02:59:27.345Z,91.60
2017-10-04T03:01:55.095Z,91.60
2017-10-04T03:04:22.743Z,91.40
2017-10-04T03:06:50.387Z,91.30
2017-10-04T03:09:18.134Z,91.40
2017-10-04T03:11:45.795Z,91.10
2017-10-04T03:14:13.838Z,91.10
2017-10-04T03:16:41.579Z,91.10
2017-10-04T03:19:09.325Z,90.80
2017-10-04T03:21:37.072Z,90.90
2017-10-04T03:24:04.924Z,90.10
2017-10-04T03:26:32.570Z,90.50
2017-10-04T03:29:00.314Z,91.30
2017-10-04T03:31:28.163Z,91.50
2017-10-04T03:33:55.812Z,91.60
2017-10-04T03:36:23.464Z,91.30
2017-10-04T03:38:51.204Z,91.20
2017-10-04T03:41:18.951Z,90.90
2017-10-04T03:43:46.697Z,91.30
2017-10-04T03:46:14.490Z,91.20
2017-10-04T03:48:42.192Z,91.40
2017-10-04T03:51:09.942Z,91.50
2017-10-04T03:53:37.686Z,91.30
2017-10-04T03:56:05.433Z,92.10
2017-10-04T03:58:33.180Z,91.90
2017-10-04T04:01:00.875Z,91.90
2017-10-04T04:03:28.526Z,91.80
2017-10-04T04:05:56.214Z,91.70
2017-10-04T04:08:24.019Z,91.40
2017-10-04T04:10:51.715Z,91.10
2017-10-04T04:13:19.464Z,90.80
2017-10-04T04:15:47.209Z,91.10
2017-10-04T04:18:14.853Z,91.10
2017-10-04T04:20:42.495Z,91.20
2017-10-04T04:23:10.187Z,91.10
2017-10-04T04:25:37.891Z,90.90
2017-10-04T04:28:05.531Z,90.90
2017-10-04T04:30:33.282Z,91.20
2017-10-04T04:33:00.935Z,91.50
2017-10-04T04:35:28.674Z,91.40
2017-10-04T04:38:08.402Z,91.30
2017-10-04T04:40:36.150Z,91.10
2017-10-04T04:43:03.795Z,91.20
2017-10-04T04:45:31.582Z,91.20
2017-10-04T04:47:59.231Z,91.30
2017-10-04T04:50:26.934Z,91.00
2017-10-04T04:52:54.619Z,91.20
2017-10-04T04:55:22.739Z,90.90
2017-10-04T04:57:50.486Z,90.90
2017-10-04T05:00:18.218Z,91.50
2017-10-04T05:02:45.876Z,91.40
2017-10-04T05:05:13.624Z,91.40
2017-10-04T05:07:41.322Z,91.80
2017-10-04T05:10:08.962Z,92.20
2017-10-04T05:12:36.601Z,92.40
2017-10-04T05:15:04.408Z,92.30
2017-10-04T05:17:32.060Z,91.90
2017-10-04T05:19:59.800Z,91.70
2017-10-04T05:22:27.548Z,91.70
2017-10-04T05:24:55.297Z,91.80
2017-10-04T05:27:23.045Z,91.50
2017-10-04T05:29:50.730Z,91.50
2017-10-04T05:32:18.772Z,91.20
2017-10-04T05:34:46.808Z,91.30
2017-10-04T05:37:14.547Z,91.30
2017-10-04T05:39:42.193Z,91.40
2017-10-04T05:42:09.852Z,91.30
2017-10-04T05:44:37.952Z,91.50
2017-10-04T05:47:05.599Z,91.50
2017-10-04T05:49:33.560Z,91.40
2017-10-04T05:52:01.320Z,91.40
2017-10-04T05:54:28.967Z,91.60
2017-10-04T05:56:56.619Z,91.30
2017-10-04T05:59:24.321Z,91.00
2017-10-04T06:01:51.965Z,91.40
2017-10-04T06:04:19.628Z,91.40
2017-10-04T06:06:47.335Z,91.10
2017-10-04T06:09:14.984Z,90.40
2017-10-04T06:11:43.023Z,90.00
2017-10-04T06:14:10.742Z,90.10
2017-10-04T06:16:38.389Z,89.60
2017-10-04T06:19:06.148Z,88.90
2017-10-04T06:21:33.839Z,88.50
2017-10-04T06:24:01.478Z,87.90
2017-10-04T06:26:29.123Z,87.40
2017-10-04T06:28:57.302Z,87.20
2017-10-04T06:31:25.007Z,87.20
2017-10-04T06:33:52.687Z,87.50
2017-10-04T06:36:20.410Z,87.80
2017-10-04T06:38:48.538Z,86.80
2017-10-04T06:41:16.241Z,86.80
2017-10-04T06:43:43.958Z,86.60
2017-10-04T06:46:12.007Z,86.70
2017-10-04T06:48:40.047Z,86.60
2017-10-04T06:51:08.515Z,86.60
2017-10-04T06:53:36.164Z,86.30
2017-10-04T06:56:03.811Z,86.30
2017-10-04T06:58:31.949Z,85.50
2017-10-04T07:00:59.696Z,85.50
2017-10-04T07:03:27.359Z,85.20
2017-10-04T07:05:55.099Z,85.20
2017-10-04T07:08:22.766Z,85.00
2017-10-04T07:10:50.858Z,84.40
2017-10-04T07:13:18.587Z,84.40
2017-10-04T07:15:46.296Z,84.60
2017-10-04T07:18:13.970Z,83.50
2017-10-04T07:20:41.778Z,84.20
2017-10-04T07:23:09.426Z,83.40
2017-10-04T07:25:37.171Z,83.60
2017-10-04T07:28:05.000Z,82.00
2017-10-04T07:30:32.679Z,83.20
2017-10-04T07:33:00.412Z,82.20
2017-10-04T07:35:28.126Z,80.50
2017-10-04T07:37:55.771Z,78.50
2017-10-04T07:40:23.451Z,79.10
2017-10-04T07:42:51.150Z,78.90
2017-10-04T07:45:18.807Z,79.10
2017-10-04T07:47:46.459Z,78.80
2017-10-04T07:50:14.171Z,78.70
2017-10-04T07:52:42.227Z,78.10
2017-10-04T07:55:09.883Z,78.10
2017-10-04T07:57:37.599Z,78.00
2017-10-04T08:00:05.327Z,78.10
2017-10-04T08:02:32.978Z,77.70
2017-10-04T08:05:00.734Z,77.20
2017-10-04T08:07:28.383Z,77.40
2017-10-04T08:09:56.030Z,76.70
2017-10-04T08:12:23.739Z,76.50
2017-10-04T08:14:51.396Z,75.10
2017-10-04T08:17:19.052Z,74.80
2017-10-04T08:19:46.771Z,75.30
2017-10-04T08:22:14.423Z,75.30
2017-10-04T08:24:42.066Z,76.80
2017-10-04T08:27:09.790Z,76.70
2017-10-04T08:29:37.439Z,76.60
2017-10-04T08:32:05.093Z,76.30
2017-10-04T08:34:32.867Z,76.40
2017-10-04T08:37:00.518Z,76.00
2017-10-04T08:39:28.188Z,75.60
2017-10-04T08:41:56.292Z,73.50
2017-10-04T08:44:23.938Z,73.50
2017-10-04T08:46:52.466Z,74.30
2017-10-04T08:49:20.575Z,75.70
2017-10-04T08:51:48.227Z,75.70
2017-10-04T08:54:15.883Z,74.50
2017-10-04T08:56:43.724Z,75.50
2017-10-04T08:59:11.379Z,76.10
2017-10-04T09:01:39.032Z,76.30
2017-10-04T09:04:06.979Z,76.10
2017-10-04T09:06:34.634Z,76.40
2017-10-04T09:09:02.765Z,75.30
2017-10-04T09:11:30.576Z,75.30
2017-10-04T09:13:58.222Z,75.30
2017-10-04T09:16:25.870Z,75.10
2017-10-04T09:18:53.575Z,73.20
2017-10-04T09:21:21.650Z,73.40
2017-10-04T09:23:49.302Z,73.40
2017-10-04T09:26:17.003Z,73.70
2017-10-04T09:28:44.660Z,73.40
2017-10-04T09:31:12.312Z,72.60
2017-10-04T09:33:40.407Z,70.60
2017-10-04T09:36:08.090Z,70.60
2017-10-04T09:38:35.837Z,72.00
2017-10-04T09:41:03.584Z,70.30
2017-10-04T09:43:31.223Z,69.30
2017-10-04T09:45:58.930Z,69.00
2017-10-04T09:48:26.682Z,68.50
2017-10-04T09:50:54.336Z,68.90
2017-10-04T09:53:22.000Z,68.60
2017-10-04T09:55:49.815Z,67.70
2017-10-04T09:58:17.510Z,67.80
2017-10-04T10:00:45.159Z,68.30
2017-10-04T10:03:12.855Z,68.30
2017-10-04T10:05:40.546Z,66.20
2017-10-04T10:08:08.298Z,67.50
2017-10-04T10:10:35.986Z,67.70
2017-10-04T10:13:03.689Z,68.20
2017-10-04T10:15:31.360Z,67.90
2017-10-04T10:17:59.478Z,69.20
2017-10-04T10:20:27.233Z,69.20
2017-10-04T10:22:54.983Z,68.80
2017-10-04T10:25:22.733Z,67.80
2017-10-04T10:27:50.391Z,69.80
2017-10-04T10:30:18.043Z,70.00
2017-10-04T10:32:46.178Z,69.00
2017-10-04T10:35:13.924Z,69.00
2017-10-04T10:37:41.571Z,66.60
2017-10-04T10:40:09.377Z,67.30
2017-10-04T10:42:37.064Z,66.40
2017-10-04T10:45:04.726Z,66.90
2017-10-04T10:47:32.443Z,67.60
2017-10-04T10:50:00.099Z,65.30
2017-10-04T10:52:27.749Z,64.90
2017-10-04T10:54:55.451Z,65.30
2017-10-04T10:57:23.099Z,64.80
2017-10-04T10:59:50.743Z,65.70
2017-10-04T11:02:18.462Z,65.20
2017-10-04T11:04:46.586Z,64.70
2017-10-04T11:07:14.239Z,64.70
2017-10-04T11:09:41.930Z,64.80
2017-10-04T11:12:09.576Z,65.80
2017-10-04T11:14:37.268Z,65.10
2017-10-04T11:17:04.959Z,66.00
2017-10-04T11:19:32.660Z,63.90
2017-10-04T11:22:00.311Z,63.40
2017-10-04T11:24:28.023Z,65.00
2017-10-04T11:26:55.671Z,64.70
2017-10-04T11:29:23.328Z,63.60
2017-10-04T11:31:51.042Z,64.00
2017-10-04T11:34:18.736Z,63.50
2017-10-04T11:36:46.395Z,64.20
2017-10-04T11:39:14.099Z,63.70
2017-10-04T11:41:41.773Z,63.70
2017-10-04T11:44:09.427Z,65.00
2017-10-04T11:46:37.166Z,65.80
2017-10-04T11:49:04.924Z,63.60
2017-10-04T11:51:32.575Z,63.80
2017-10-04T11:54:00.316Z,63.40
2017-10-04T11:56:27.976Z,63.10
2017-10-04T11:58:55.712Z,62.00
2017-10-04T12:01:23.440Z,62.20
2017-10-04T12:03:51.205Z,61.90
2017-10-04T12:06:18.859Z,62.10
2017-10-04T12:08:46.572Z,61.40
2017-10-04T12:11:14.247Z,62.60
2017-10-04T12:13:41.989Z,64.20
2017-10-04T12:16:09.838Z,62.30
2017-10-04T12:18:37.491Z,61.50
2017-10-04T12:21:05.230Z,60.20
2017-10-04T12:23:33.071Z,62.00
2017-10-04T12:26:00.827Z,61.80
2017-10-04T12:28:28.492Z,61.40
2017-10-04T12:30:56.198Z,61.30
2017-10-04T12:33:23.866Z,60.90
2017-10-04T12:35:51.519Z,62.50
2017-10-04T12:38:19.243Z,61.70
2017-10-04T12:40:46.903Z,60.10
2017-10-04T12:43:14.547Z,61.70
2017-10-04T12:45:42.295Z,63.60
2017-10-04T12:48:10.043Z,64.10
2017-10-04T12:50:37.790Z,63.70
2017-10-04T12:53:05.595Z,63.80
2017-10-04T12:55:33.243Z,61.90
2017-10-04T12:58:00.929Z,63.10
2017-10-04T13:00:28.659Z,62.30
2017-10-04T13:02:56.307Z,63.10
2017-10-04T13:05:23.963Z,61.70
2017-10-04T13:07:51.671Z,62.90
2017-10-04T13:10:19.361Z,62.30
2017-10-04T13:12:47.010Z,61.80
2017-10-04T13:15:14.728Z,62.00
2017-10-04T13:17:42.371Z,62.50
2017-10-04T13:20:10.063Z,62.70
2017-10-04T13:22:37.788Z,62.70
2017-10-04T13:25:05.455Z,63.20
2017-10-04T13:27:33.693Z,63.30
2017-10-04T13:30:01.440Z,63.30
2017-10-04T13:32:29.091Z,63.20
2017-10-04T13:34:56.832Z,63.80
2017-10-04T13:37:24.549Z,63.50
2017-10-04T13:39:52.199Z,63.30
2017-10-04T13:42:19.849Z,63.90
2017-10-04T13:44:47.825Z,65.00
2017-10-04T13:47:15.571Z,64.60
2017-10-04T13:49:43.319Z,63.80
2017-10-04T13:52:11.143Z,65.10
2017-10-04T13:54:38.915Z,65.40
2017-10-04T13:57:06.663Z,66.10
2017-10-04T13:59:34.361Z,64.30
2017-10-04T14:02:01.999Z,64.40
2017-10-04T14:04:29.655Z,65.90
2017-10-04T14:06:57.342Z,65.60
2017-10-04T14:09:24.991Z,66.20
2017-10-04T14:11:52.738Z,66.70
2017-10-04T14:14:20.487Z,66.10
2017-10-04T14:16:48.235Z,65.80
2017-10-04T14:19:15.894Z,66.60
2017-10-04T14:21:43.595Z,67.30
2017-10-04T14:24:11.236Z,66.20
2017-10-04T14:26:38.879Z,67.80
2017-10-04T14:29:06.662Z,66.40
2017-10-04T14:31:34.409Z,67.10
2017-10-04T14:34:02.156Z,67.10
2017-10-04T14:36:29.904Z,67.50
2017-10-04T14:38:57.547Z,66.90
2017-10-04T14:41:25.276Z,67.60
2017-10-04T14:43:53.045Z,67.70
2017-10-04T14:46:20.795Z,68.50
2017-10-04T14:48:48.442Z,68.30
2017-10-04T14:51:16.163Z,68.90
2017-10-04T14:53:43.829Z,68.90
2017-10-04T14:56:11.479Z,68.50
2017-10-04T14:58:39.292Z,68.60
2017-10-04T15:01:06.939Z,69.50
2017-10-04T15:03:34.613Z,70.00
2017-10-04T15:06:02.319Z,69.70
2017-10-04T15:08:30.005Z,69.70
2017-10-04T15:10:57.752Z,69.90
2017-10-04T15:13:25.552Z,69.00
2017-10-04T15:15:53.199Z,70.00
2017-10-04T15:18:20.851Z,69.30
2017-10-04T15:20:48.648Z,69.40
2017-10-04T15:23:16.798Z,70.60
2017-10-04T15:25:44.450Z,70.60
2017-10-04T15:28:12.291Z,69.60
2017-10-04T15:30:39.935Z,70.50
2017-10-04T15:33:07.588Z,69.90
2017-10-04T15:35:35.288Z,70.20
2017-10-04T15:38:02.938Z,71.00
2017-10-04T15:40:30.587Z,71.60
2017-10-04T15:42:58.291Z,71.70
2017-10-04T15:45:26.343Z,71.70
2017-10-04T15:47:54.478Z,71.90
2017-10-04T15:50:22.188Z,71.90
2017-10-04T15:52:49.843Z,71.90
2017-10-04T15:55:17.617Z,72.50
2017-10-04T15:57:45.320Z,72.30
2017-10-04T16:00:13.004Z,72.30
2017-10-04T16:02:40.656Z,72.70
2017-10-04T16:05:08.384Z,72.90
2017-10-04T16:07:36.039Z,73.00
2017-10-04T16:10:03.695Z,73.10
2017-10-04T16:12:31.411Z,73.70
2017-10-04T16:14:59.081Z,73.90
2017-10-04T16:17:26.729Z,74.10
2017-10-04T16:19:54.579Z,74.50
2017-10-04T16:22:22.236Z,74.60
2017-10-04T16:24:49.884Z,75.00
2017-10-04T16:27:17.663Z,75.20
2017-10-04T16:29:45.320Z,75.10
2017-10-04T16:32:12.963Z,75.60
2017-10-04T16:34:40.684Z,75.70
2017-10-04T16:37:08.732Z,76.20
2017-10-04T16:39:36.791Z,76.40
2017-10-04T16:42:04.935Z,76.80
2017-10-04T16:44:32.877Z,76.80
2017-10-04T16:47:00.618Z,77.20
2017-10-04T16:49:28.342Z,77.20
2017-10-04T16:51:56.112Z,77.50
2017-10-04T16:54:23.864Z,77.70
2017-10-04T16:56:51.579Z,77.90
2017-10-04T16:59:19.230Z,78.00
2017-10-04T17:01:46.894Z,78.20
2017-10-04T17:04:14.748Z,78.30
2017-10-04T17:06:42.494Z,78.90
2017-10-04T17:09:10.147Z,79.10
2017-10-04T17:11:38.298Z,79.80
2017-10-04T17:14:06.043Z,80.00
2017-10-04T17:16:33.694Z,80.10
2017-10-04T17:19:01.411Z,80.20
2017-10-04T17:21:29.080Z,80.30
2017-10-04T17:23:56.828Z,80.70
2017-10-04T17:26:24.679Z,80.90
2017-10-04T17:28:52.331Z,81.10
2017-10-04T17:31:19.983Z,81.40
2017-10-04T17:33:47.717Z,81.50
2017-10-04T17:36:15.373Z,81.50
2017-10-04T17:38:43.110Z,81.70
2017-10-04T17:41:10.914Z,81.50
2017-10-04T17:43:38.567Z,81.90
2017-10-04T17:46:06.220Z,82.20
2017-10-04T17:48:33.938Z,82.10
2017-10-04T17:51:01.639Z,82.00
2017-10-04T17:53:29.389Z,82.20
2017-10-04T17:55:57.140Z,82.10
2017-10-04T17:58:24.885Z,82.30
2017-10-04T18:00:52.631Z,82.70
2017-10-04T18:03:20.335Z,82.60
2017-10-04T18:05:47.990Z,82.40
2017-10-04T18:08:15.777Z,82.10
2017-10-04T18:10:43.490Z,82.10
2017-10-04T18:13:11.139Z,82.00
2017-10-04T18:15:38.806Z,82.10
2017-10-04T18:18:06.502Z,82.40
2017-10-04T18:20:34.198Z,82.50
2017-10-04T18:23:01.857Z,82.80
2017-10-04T18:25:29.548Z,82.70
2017-10-04T18:27:57.236Z,82.50
2017-10-04T18:30:24.896Z,82.50
2017-10-04T18:32:52.631Z,82.70
2017-10-04T18:35:21.387Z,82.70
2017-10-04T18:37:49.131Z,82.60
2017-10-04T18:40:16.993Z,82.50
2017-10-04T18:42:44.647Z,82.50
2017-10-04T18:45:12.391Z,82.50
2017-10-04T18:47:40.326Z,82.60
2017-10-04T18:50:07.986Z,82.50
2017-10-04T18:52:35.655Z,82.40
2017-10-04T18:55:04.357Z,82.30
2017-10-04T18:57:32.899Z,82.20
2017-10-04T19:00:01.658Z,82.50
2017-10-04T19:02:29.358Z,82.50
2017-10-04T19:04:57.346Z,82.30
2017-10-04T19:07:26.740Z,82.20
2017-10-04T19:09:54.471Z,82.10
2017-10-04T19:12:22.220Z,82.10
2017-10-04T19:14:49.967Z,82.30
2017-10-04T19:17:17.660Z,82.20
2017-10-04T19:19:45.913Z,82.20
2017-10-04T19:22:13.567Z,82.00
2017-10-04T19:24:41.458Z,81.80
2017-10-04T19:27:09.136Z,81.80
2017-10-04T19:29:37.270Z,81.60
2017-10-04T19:32:04.972Z,81.60
2017-10-04T19:34:32.623Z,81.50
2017-10-04T19:37:00.306Z,81.60
2017-10-04T19:39:28.155Z,81.50
2017-10-04T19:41:55.992Z,81.70
2017-10-04T19:44:23.652Z,81.70
2017-10-04T19:46:51.372Z,81.70
2017-10-04T19:49:19.148Z,82.00
2017-10-04T19:51:46.894Z,82.10
2017-10-04T19:54:14.745Z,82.10
2017-10-04T19:56:42.491Z,82.00
2017-10-04T19:59:10.147Z,82.20
2017-10-04T20:01:37.851Z,82.20
2017-10-04T20:04:05.514Z,82.40
2017-10-04T20:06:33.402Z,82.40
2017-10-04T20:09:01.660Z,82.70
2017-10-04T20:11:30.491Z,82.60
2017-10-04T20:13:58.185Z,82.60
2017-10-04T20:16:26.290Z,82.20
2017-10-04T20:18:53.940Z,82.20
2017-10-04T20:21:21.607Z,82.20
2017-10-04T20:23:49.454Z,82.30
2017-10-04T20:26:17.200Z,82.30
2017-10-04T20:28:44.947Z,82.00
2017-10-04T20:31:12.794Z,81.90
2017-10-04T20:33:40.524Z,82.10
2017-10-04T20:36:08.246Z,82.10
2017-10-04T20:38:36.044Z,82.20
2017-10-04T20:41:04.057Z,82.30
2017-10-04T20:43:31.943Z,82.10
2017-10-04T20:46:00.209Z,81.90
2017-10-04T20:48:27.949Z,81.90
2017-10-04T20:50:55.595Z,81.90
2017-10-04T20:53:23.345Z,81.90
2017-10-04T20:55:51.000Z,81.90
2017-10-04T20:58:18.735Z,82.30
2017-10-04T21:00:46.482Z,82.10
2017-10-04T21:03:14.231Z,82.30
2017-10-04T21:05:41.977Z,82.40
2017-10-04T21:08:09.667Z,82.50
2017-10-04T21:10:37.327Z,82.30
2017-10-04T21:13:05.035Z,82.50
2017-10-04T21:15:33.129Z,82.50
2017-10-04T21:18:00.815Z,82.50
2017-10-04T21:20:28.463Z,82.50
2017-10-04T21:22:56.164Z,82.80
2017-10-04T21:25:23.810Z,82.80
2017-10-04T21:27:51.500Z,83.00
2017-10-04T21:30:19.219Z,82.90
2017-10-04T21:32:46.891Z,82.60
2017-10-04T21:35:14.741Z,82.50
2017-10-04T21:37:42.431Z,82.20
2017-10-04T21:40:10.084Z,82.30
2017-10-04T21:42:37.779Z,82.10
2017-10-04T21:45:05.531Z,82.00
2017-10-04T21:47:33.179Z,82.10
2017-10-04T21:50:00.823Z,81.80
2017-10-04T21:52:28.528Z,81.80
2017-10-04T21:54:56.185Z,81.50
2017-10-04T21:57:23.831Z,80.90
2017-10-04T21:59:51.601Z,81.30
2017-10-04T22:02:19.264Z,81.10
2017-10-04T22:04:47.314Z,81.00
2017-10-04T22:07:15.150Z,81.00
2017-10-04T22:09:42.797Z,80.80
2017-10-04T22:12:10.442Z,80.60
2017-10-04T22:14:38.437Z,80.20
2017-10-04T22:17:06.137Z,80.10
2017-10-04T22:19:34.095Z,79.60
2017-10-04T22:22:01.839Z,80.00
2017-10-04T22:24:29.932Z,79.70
2017-10-04T22:26:57.946Z,79.80
2017-10-04T22:29:25.651Z,80.10
2017-10-04T22:31:53.296Z,80.30
2017-10-04T22:34:20.986Z,80.30
2017-10-04T22:36:48.732Z,80.40
2017-10-04T22:39:16.377Z,80.20
2017-10-04T22:41:44.125Z,80.00
2017-10-04T22:44:11.826Z,79.70
2017-10-04T22:46:39.517Z,79.40
2017-10-04T22:49:07.159Z,78.70
2017-10-04T22:51:34.867Z,78.60
2017-10-04T22:54:02.516Z,78.80
2017-10-04T22:56:30.198Z,78.50
2017-10-04T22:58:57.944Z,78.20
2017-10-04T23:01:25.595Z,77.90
2017-10-04T23:03:53.341Z,77.80
2017-10-04T23:06:21.189Z,77.60
2017-10-04T23:08:48.936Z,77.60
2017-10-04T23:11:16.583Z,77.80
2017-10-04T23:13:44.298Z,78.10
2017-10-04T23:16:11.974Z,78.00
2017-10-04T23:18:39.680Z,77.90
2017-10-04T23:21:07.388Z,78.20
2017-10-04T23:23:35.442Z,78.50
2017-10-04T23:26:03.486Z,78.20
2017-10-04T23:28:31.241Z,78.20
2017-10-04T23:30:59.283Z,78.40
2017-10-04T23:33:26.940Z,78.40
2017-10-04T23:35:54.766Z,78.50
2017-10-04T23:38:22.419Z,78.70
2017-10-04T23:40:50.391Z,78.50
2017-10-04T23:43:18.116Z,78.90
2017-10-04T23:45:45.864Z,78.70
2017-10-04T23:48:13.611Z,78.30
2017-10-04T23:50:41.314Z,78.30
2017-10-04T23:53:08.951Z,78.80
2017-10-04T23:55:36.590Z,79.30
2017-10-04T23:58:04.391Z,79.40
